Time;durP1;ratioP1;P1;durP2;ratioP2;P2;SDS_P1;SDS_P2;PMS_P1;PMS_P2;Temp;Humidity;BMP_temperature;BMP_pressure;BME280_temperature;BME280_humidity;BME280_pressure;Samples;Min_cycle;Max_cycle;Signal;HPM_P1;HPM_P2
2022/09/01 00:02:10;;;;;;;5.47;3.43;;;19.10;99.90;;;;;;5095881;28;20179;-73
2022/09/01 00:04:40;;;;;;;6.60;4.43;;;19.00;99.90;;;;;;5095665;28;20578;-70
2022/09/01 00:07:06;;;;;;;3.87;3.40;;;18.90;99.90;;;;;;5095911;28;20174;-71
2022/09/01 00:09:33;;;;;;;5.73;4.10;;;18.80;99.90;;;;;;5095423;28;20215;-70
2022/09/01 00:12:00;;;;;;;4.13;3.30;;;18.80;99.90;;;;;;5095744;28;20197;-72
2022/09/01 00:14:30;;;;;;;6.47;3.37;;;18.70;99.90;;;;;;5095814;28;20481;-72
2022/09/01 00:17:03;;;;;;;5.60;3.03;;;18.60;99.90;;;;;;5095713;28;20171;-70
2022/09/01 00:19:29;;;;;;;6.67;2.97;;;18.50;99.90;;;;;;5095736;28;20167;-71
2022/09/01 00:21:55;;;;;;;8.73;3.80;;;18.40;99.90;;;;;;5095670;28;20254;-70
2022/09/01 00:24:21;;;;;;;5.37;3.30;;;18.20;99.90;;;;;;5095529;28;20175;-70
2022/09/01 00:26:47;;;;;;;5.97;4.10;;;18.00;99.90;;;;;;5094644;28;20181;-72
2022/09/01 00:29:14;;;;;;;3.47;3.00;;;17.70;99.90;;;;;;5095953;28;20175;-71
2022/09/01 00:31:40;;;;;;;4.63;3.13;;;17.40;99.90;;;;;;5095422;28;20306;-71
2022/09/01 00:34:06;;;;;;;4.10;3.33;;;17.10;99.90;;;;;;5095540;28;20198;-73
2022/09/01 00:36:32;;;;;;;4.53;2.40;;;16.50;99.90;;;;;;5094395;28;20198;-72
2022/09/01 00:38:58;;;;;;;3.10;2.90;;;15.70;99.90;;;;;;5095531;28;20617;-71
2022/09/01 00:41:27;;;;;;;5.43;4.17;;;16.00;99.90;;;;;;5095694;28;20171;-74
2022/09/01 00:43:56;;;;;;;3.00;2.80;;;16.20;99.90;;;;;;5095374;28;20173;-74
2022/09/01 00:46:30;;;;;;;5.10;3.23;;;16.20;99.90;;;;;;5095470;28;20482;-74
2022/09/01 00:49:02;;;;;;;3.87;3.33;;;15.80;99.90;;;;;;5095983;28;20177;-71
2022/09/01 00:51:28;;;;;;;4.53;4.13;;;15.30;99.90;;;;;;5097882;28;20195;-76
2022/09/01 00:53:57;;;;;;;5.70;3.27;;;13.20;99.90;;;;;;5099284;28;20219;-73
2022/09/01 00:56:23;;;;;;;6.17;4.73;;;12.80;99.90;;;;;;5099208;28;20193;-72
2022/09/01 00:58:51;;;;;;;6.50;3.83;;;12.80;99.90;;;;;;5099036;28;20178;-73
2022/09/01 01:01:17;;;;;;;3.17;2.87;;;11.80;99.90;;;;;;5099223;28;20183;-75
2022/09/01 01:03:45;;;;;;;4.57;3.90;;;10.90;99.90;;;;;;5098960;28;20186;-74
2022/09/01 01:06:14;;;;;;;4.73;4.30;;;11.90;99.90;;;;;;5098733;28;20167;-72
2022/09/01 01:08:50;;;;;;;3.63;3.43;;;12.30;99.90;;;;;;5099134;28;20181;-72
2022/09/01 01:11:17;;;;;;;4.53;3.07;;;12.60;99.90;;;;;;5098910;28;20197;-71
2022/09/01 01:14:08;;;;;;;9.07;4.00;;;13.80;99.90;;;;;;5098809;28;20628;-71
2022/09/01 01:16:34;;;;;;;14.00;4.13;;;15.70;99.90;;;;;;5098984;28;20249;-72
2022/09/01 01:19:00;;;;;;;6.20;3.67;;;16.00;99.90;;;;;;5098903;28;20485;-73
2022/09/01 01:24:33;;;;;;;4.30;3.87;;;16.10;99.90;;;;;;5098773;28;20173;-71
2022/09/01 01:26:59;;;;;;;4.37;3.37;;;16.10;99.90;;;;;;5098556;28;20174;-72
2022/09/01 01:29:28;;;;;;;4.13;3.27;;;16.20;99.90;;;;;;5098810;28;20212;-71
2022/09/01 01:31:54;;;;;;;4.57;3.50;;;16.20;99.90;;;;;;5098458;28;20191;-71
2022/09/01 01:34:22;;;;;;;9.03;3.73;;;16.40;99.90;;;;;;5097176;28;20174;-72
2022/09/01 01:36:49;;;;;;;4.87;3.90;;;16.20;99.90;;;;;;5098452;28;20163;-70
2022/09/01 01:39:19;;;;;;;7.53;4.80;;;16.00;99.90;;;;;;5098605;28;20198;-72
2022/09/01 01:41:47;;;;;;;6.37;4.17;;;16.30;99.90;;;;;;5098406;28;20224;-72
2022/09/01 01:44:16;;;;;;;5.53;3.83;;;16.30;99.90;;;;;;5098431;28;20171;-72
2022/09/01 01:46:46;;;;;;;4.23;3.47;;;16.30;99.90;;;;;;5098293;28;20182;-72
2022/09/01 01:49:18;;;;;;;11.33;4.17;;;16.40;99.90;;;;;;5098061;28;20641;-72
2022/09/01 01:51:46;;;;;;;5.37;3.37;;;16.00;99.90;;;;;;5098249;28;20190;-72
2022/09/01 01:54:12;;;;;;;5.10;4.13;;;16.60;99.90;;;;;;5098322;28;20453;-72
2022/09/01 01:56:38;;;;;;;6.90;4.10;;;16.50;99.90;;;;;;5098140;28;20171;-74
2022/09/01 01:59:06;;;;;;;4.40;4.00;;;16.50;99.90;;;;;;5098203;28;20186;-75
2022/09/01 02:01:31;;;;;;;5.77;4.33;;;16.20;99.90;;;;;;5096998;28;20201;-73
2022/09/01 02:03:59;;;;;;;7.30;5.50;;;16.40;99.90;;;;;;5097493;28;20171;-73
2022/09/01 02:06:26;;;;;;;6.33;4.20;;;16.40;99.90;;;;;;5097838;28;20170;-73
2022/09/01 02:08:57;;;;;;;9.43;5.43;;;16.50;99.90;;;;;;5097820;28;20166;-73
2022/09/01 02:11:26;;;;;;;6.03;4.40;;;16.80;99.90;;;;;;5097991;28;20584;-72
2022/09/01 02:13:55;;;;;;;5.17;4.17;;;17.00;99.90;;;;;;5097833;28;20249;-74
2022/09/01 02:16:23;;;;;;;10.23;4.33;;;17.10;99.90;;;;;;5097606;28;20178;-73
2022/09/01 02:18:50;;;;;;;5.50;4.90;;;17.30;99.90;;;;;;5096232;28;20558;-75
2022/09/01 02:21:19;;;;;;;7.90;4.70;;;17.30;99.90;;;;;;5097619;28;20162;-71
2022/09/01 02:23:59;;;;;;;11.60;4.80;;;17.40;99.90;;;;;;5097781;28;20173;-75
2022/09/01 02:26:30;;;;;;;8.73;6.47;;;17.40;99.90;;;;;;5097331;28;20182;-74
2022/09/01 02:29:00;;;;;;;6.17;4.93;;;17.50;99.90;;;;;;5097508;28;20215;-71
2022/09/01 02:31:27;;;;;;;9.60;6.27;;;17.50;99.90;;;;;;5097543;28;20289;-74
2022/09/01 02:33:53;;;;;;;8.10;4.77;;;17.50;99.90;;;;;;5097155;28;20159;-74
2022/09/01 02:36:19;;;;;;;8.00;5.43;;;17.60;99.90;;;;;;5097309;28;20266;-71
2022/09/01 02:38:47;;;;;;;7.17;4.67;;;17.60;99.90;;;;;;5097305;28;20182;-77
2022/09/01 02:41:19;;;;;;;7.80;5.67;;;17.60;99.90;;;;;;5097547;28;20261;-76
2022/09/01 02:43:45;;;;;;;12.70;5.23;;;17.60;99.90;;;;;;5097396;28;20243;-75
2022/09/01 02:46:12;;;;;;;9.00;5.20;;;17.60;99.90;;;;;;5097188;28;20174;-73
2022/09/01 02:48:40;;;;;;;8.33;6.30;;;17.60;99.90;;;;;;5096855;28;20179;-76
2022/09/01 02:51:09;;;;;;;6.70;5.23;;;17.60;99.90;;;;;;5096883;28;20202;-72
2022/09/01 02:53:38;;;;;;;7.33;5.43;;;17.60;99.90;;;;;;5097112;28;20192;-72
2022/09/01 02:56:08;;;;;;;8.93;5.97;;;17.60;99.90;;;;;;5095864;28;20646;-74
2022/09/01 02:58:39;;;;;;;6.90;5.13;;;17.70;99.90;;;;;;5096765;28;20621;-73
2022/09/01 03:01:23;;;;;;;12.37;6.73;;;17.60;99.90;;;;;;5096875;28;20220;-73
2022/09/01 03:03:55;;;;;;;10.73;6.57;;;17.70;99.90;;;;;;5096813;28;20175;-72
2022/09/01 03:06:22;;;;;;;9.50;5.80;;;17.60;99.90;;;;;;5096866;28;20570;-77
2022/09/01 03:08:54;;;;;;;8.30;6.60;;;17.70;99.90;;;;;;5096646;28;20257;-71
2022/09/01 03:11:23;;;;;;;10.53;7.33;;;17.70;99.90;;;;;;5096697;28;20590;-72
2022/09/01 03:13:49;;;;;;;6.37;5.77;;;17.60;99.90;;;;;;5096630;28;20520;-71
2022/09/01 03:16:15;;;;;;;7.80;6.60;;;17.60;99.90;;;;;;5096246;28;20170;-72
2022/09/01 03:18:44;;;;;;;11.13;7.50;;;17.60;99.90;;;;;;5095518;28;20252;-75
2022/09/01 03:21:14;;;;;;;12.23;7.23;;;17.60;99.90;;;;;;5096458;28;20608;-71
2022/09/01 03:23:40;;;;;;;7.57;5.27;;;17.60;99.90;;;;;;5096499;28;20263;-71
2022/09/01 03:26:07;;;;;;;7.90;6.67;;;17.50;99.90;;;;;;5096380;28;20171;-71
2022/09/01 03:28:32;;;;;;;10.83;7.10;;;17.50;99.90;;;;;;5096226;28;20175;-71
2022/09/01 03:30:58;;;;;;;8.27;5.97;;;17.40;99.90;;;;;;5095941;28;20179;-71
2022/09/01 03:33:26;;;;;;;10.90;7.33;;;17.40;99.90;;;;;;5096342;28;20282;-71
2022/09/01 03:35:53;;;;;;;7.57;5.70;;;17.20;99.90;;;;;;5096311;28;20563;-70
2022/09/01 03:38:23;;;;;;;7.73;6.33;;;17.20;99.90;;;;;;5096187;28;20220;-71
2022/09/01 03:40:57;;;;;;;8.03;6.47;;;17.10;99.90;;;;;;5096358;28;20194;-74
2022/09/01 03:43:26;;;;;;;13.07;7.97;;;17.10;99.90;;;;;;5096109;28;20589;-73
2022/09/01 03:45:54;;;;;;;11.13;8.27;;;17.00;99.90;;;;;;5095896;28;20166;-71
2022/09/01 03:48:23;;;;;;;8.90;6.37;;;17.00;99.90;;;;;;5096059;28;20255;-71
2022/09/01 03:50:49;;;;;;;8.23;6.33;;;16.90;99.90;;;;;;5096064;28;20293;-70
2022/09/01 03:53:21;;;;;;;12.40;7.60;;;16.80;99.90;;;;;;5095934;28;20533;-70
2022/09/01 03:55:48;;;;;;;9.83;6.70;;;16.60;99.90;;;;;;5095925;28;20775;-70
2022/09/01 03:58:17;;;;;;;8.90;6.17;;;16.60;99.90;;;;;;5095777;28;20186;-73
2022/09/01 04:00:46;;;;;;;11.80;8.20;;;16.40;99.90;;;;;;5095497;28;20251;-70
2022/09/01 04:03:13;;;;;;;8.40;6.27;;;16.10;99.90;;;;;;5095659;28;20181;-75
2022/09/01 04:05:44;;;;;;;11.80;6.07;;;15.70;99.90;;;;;;5095771;28;20207;-71
2022/09/01 04:08:11;;;;;;;9.63;7.27;;;15.40;99.90;;;;;;5094664;28;20178;-72
2022/09/01 04:10:49;;;;;;;8.90;6.07;;;14.90;99.90;;;;;;5095791;28;20466;-70
2022/09/01 04:13:21;;;;;;;11.27;6.80;;;14.20;99.90;;;;;;5095797;28;20578;-73
2022/09/01 04:15:47;;;;;;;8.03;6.47;;;13.60;99.90;;;;;;5095609;28;20174;-71
2022/09/01 04:18:22;;;;;;;9.67;6.27;;;12.60;99.90;;;;;;5095703;28;20216;-70
2022/09/01 04:20:58;;;;;;;6.97;6.13;;;11.30;99.90;;;;;;5095612;28;20703;-71
2022/09/01 04:23:29;;;;;;;7.07;6.30;;;9.90;99.90;;;;;;5095886;28;20197;-71
2022/09/01 04:25:59;;;;;;;10.37;6.80;;;11.10;99.90;;;;;;5099914;28;20249;-70
2022/09/01 04:28:32;;;;;;;6.47;5.77;;;16.70;99.90;;;;;;5099454;28;20174;-72
2022/09/01 04:31:04;;;;;;;7.17;6.50;;;16.60;99.90;;;;;;5099565;28;20183;-70
2022/09/01 04:33:40;;;;;;;10.23;6.20;;;16.60;99.90;;;;;;5098744;28;20204;-71
2022/09/01 04:36:22;;;;;;;6.83;5.87;;;16.50;99.90;;;;;;5099564;28;20540;-70
2022/09/01 04:38:54;;;;;;;9.83;7.07;;;16.50;99.90;;;;;;5099621;28;20166;-70
2022/09/01 04:41:24;;;;;;;7.97;6.50;;;16.40;99.90;;;;;;5099529;28;20186;-71
2022/09/01 04:43:51;;;;;;;9.03;6.57;;;16.40;99.90;;;;;;5099218;28;20204;-73
2022/09/01 04:46:19;;;;;;;8.63;5.90;;;16.30;99.90;;;;;;5098285;28;20187;-71
2022/09/01 04:48:46;;;;;;;11.27;7.07;;;16.30;99.90;;;;;;5099554;28;20248;-71
2022/09/01 04:51:14;;;;;;;12.37;5.83;;;16.30;99.90;;;;;;5099019;28;20206;-72
2022/09/01 04:53:47;;;;;;;44.13;12.90;;;16.60;99.90;;;;;;5099411;28;20593;-70
2022/09/01 04:56:18;;;;;;;12.67;6.73;;;16.20;99.90;;;;;;5099200;28;20227;-74
2022/09/01 04:58:45;;;;;;;15.10;7.53;;;16.20;99.90;;;;;;5099099;28;20659;-72
2022/09/01 05:01:20;;;;;;;13.87;7.43;;;16.30;99.90;;;;;;5099256;28;20197;-73
2022/09/01 05:04:00;;;;;;;8.17;6.73;;;16.10;99.90;;;;;;5099087;28;20219;-73
2022/09/01 05:06:28;;;;;;;10.03;5.73;;;16.10;99.90;;;;;;5099260;28;20189;-72
2022/09/01 05:08:58;;;;;;;11.57;7.07;;;15.90;99.90;;;;;;5099065;28;20171;-73
2022/09/01 05:11:24;;;;;;;9.90;6.37;;;15.90;99.90;;;;;;5099065;28;20222;-75
2022/09/01 05:13:55;;;;;;;10.20;6.20;;;15.70;99.90;;;;;;5098886;28;20266;-78
2022/09/01 05:16:24;;;;;;;10.80;6.87;;;15.70;99.90;;;;;;5097891;28;20166;-74
2022/09/01 05:18:53;;;;;;;11.60;6.70;;;15.60;99.90;;;;;;5099130;28;20232;-73
2022/09/01 05:21:23;;;;;;;18.70;7.40;;;15.60;99.90;;;;;;5098646;28;20177;-75
2022/09/01 05:23:50;;;;;;;9.47;7.30;;;15.60;99.90;;;;;;5099387;28;20201;-74
2022/09/01 05:26:30;;;;;;;12.53;7.37;;;15.60;99.90;;;;;;5101100;28;20590;-73
2022/09/01 05:28:59;;;;;;;10.77;6.57;;;15.50;99.90;;;;;;5102388;28;20193;-74
2022/09/01 05:31:28;;;;;;;8.87;6.30;;;15.40;99.90;;;;;;5101207;28;20218;-77
2022/09/01 05:33:56;;;;;;;8.57;6.23;;;15.30;99.90;;;;;;5099876;28;20162;-71
2022/09/01 05:36:23;;;;;;;11.90;6.43;;;15.20;99.90;;;;;;5097139;28;20167;-70
2022/09/01 05:38:51;;;;;;;7.57;5.83;;;15.20;99.90;;;;;;5097568;28;20593;-74
2022/09/01 05:41:19;;;;;;;10.93;6.83;;;15.20;99.90;;;;;;5098326;28;20196;-75
2022/09/01 05:43:48;;;;;;;8.90;6.50;;;15.10;99.90;;;;;;5098496;28;20159;-75
2022/09/01 05:46:20;;;;;;;11.77;7.47;;;15.10;99.90;;;;;;5098241;28;20228;-77
2022/09/01 05:48:48;;;;;;;7.97;7.17;;;15.10;99.90;;;;;;5097372;28;20219;-70
2022/09/01 05:51:18;;;;;;;15.60;6.87;;;15.10;99.90;;;;;;5098420;28;20504;-73
2022/09/01 05:53:46;;;;;;;10.77;6.57;;;15.10;99.90;;;;;;5098338;28;20175;-74
2022/09/01 05:56:13;;;;;;;11.97;7.50;;;15.10;99.90;;;;;;5097875;28;20163;-71
2022/09/01 05:58:42;;;;;;;16.13;7.40;;;15.20;99.90;;;;;;5098072;28;20256;-71
2022/09/01 06:01:09;;;;;;;16.03;8.10;;;15.20;99.90;;;;;;5097856;28;20191;-71
2022/09/01 06:03:36;;;;;;;11.80;6.40;;;15.20;99.90;;;;;;5098181;28;20183;-71
2022/09/01 06:06:08;;;;;;;9.37;7.77;;;15.30;99.90;;;;;;5097973;28;20601;-71
2022/09/01 06:08:35;;;;;;;16.33;9.30;;;15.30;99.90;;;;;;5096939;28;20236;-71
2022/09/01 06:11:03;;;;;;;11.97;7.30;;;15.40;99.90;;;;;;5097571;28;20170;-71
2022/09/01 06:13:29;;;;;;;9.23;6.47;;;15.50;99.90;;;;;;5098019;28;20200;-75
2022/09/01 06:15:57;;;;;;;12.00;7.13;;;15.50;99.90;;;;;;5097733;28;20155;-71
2022/09/01 06:18:23;;;;;;;5.53;5.00;;;15.70;99.90;;;;;;5097861;28;20159;-73
2022/09/01 06:20:49;;;;;;;12.00;6.03;;;15.70;99.90;;;;;;5097792;28;20193;-72
2022/09/01 06:23:16;;;;;;;8.23;7.23;;;15.70;99.90;;;;;;5096603;28;20175;-71
2022/09/01 06:25:45;;;;;;;8.67;6.50;;;15.70;99.90;;;;;;5097488;28;20175;-72
2022/09/01 06:28:14;;;;;;;9.90;6.43;;;15.80;99.90;;;;;;5097741;28;20171;-71
2022/09/01 06:30:41;;;;;;;7.50;6.40;;;15.90;99.90;;;;;;5097706;28;20185;-72
2022/09/01 06:33:09;;;;;;;6.80;5.87;;;16.00;99.90;;;;;;5097280;28;20195;-71
2022/09/01 06:35:37;;;;;;;9.33;5.13;;;16.00;99.90;;;;;;5097488;28;20186;-71
2022/09/01 06:38:05;;;;;;;7.17;5.43;;;16.10;99.90;;;;;;5097406;28;20167;-71
2022/09/01 06:40:32;;;;;;;6.80;5.13;;;16.20;99.90;;;;;;5097060;28;20589;-71
2022/09/01 06:43:00;;;;;;;8.00;4.57;;;16.30;99.90;;;;;;5097089;28;20206;-74
2022/09/01 06:45:27;;;;;;;7.60;5.67;;;16.40;99.90;;;;;;5097200;28;20218;-71
2022/09/01 06:47:54;;;;;;;10.30;5.17;;;16.30;99.90;;;;;;5096604;28;20627;-70
2022/09/01 06:50:22;;;;;;;5.60;5.03;;;16.40;99.90;;;;;;5097162;28;20520;-71
2022/09/01 06:53:00;;;;;;;5.57;4.50;;;16.50;99.90;;;;;;5097037;28;20199;-71
2022/09/01 06:55:30;;;;;;;10.43;5.73;;;16.40;99.90;;;;;;5096759;28;20200;-70
2022/09/01 06:57:57;;;;;;;5.93;5.37;;;16.20;99.90;;;;;;5096988;28;20201;-71
2022/09/01 07:00:23;;;;;;;5.50;4.87;;;16.10;99.90;;;;;;5096835;28;20217;-72
2022/09/01 07:02:55;;;;;;;4.80;4.40;;;16.00;99.90;;;;;;5096881;28;20175;-70
2022/09/01 07:05:21;;;;;;;6.37;4.73;;;16.00;99.90;;;;;;5096808;28;20167;-71
2022/09/01 07:07:49;;;;;;;6.93;5.13;;;15.70;99.90;;;;;;5096527;28;20178;-70
2022/09/01 07:10:21;;;;;;;7.07;4.57;;;15.60;99.90;;;;;;5096892;28;20171;-71
2022/09/01 07:12:51;;;;;;;6.23;4.63;;;14.60;99.90;;;;;;5096584;28;20191;-71
2022/09/01 07:15:18;;;;;;;5.00;4.30;;;17.20;99.90;;;;;;5096699;28;20461;-77
2022/09/01 07:17:53;;;;;;;6.07;4.83;;;17.60;99.90;;;;;;5096589;28;20537;-77
2022/09/01 07:20:21;;;;;;;6.87;5.93;;;17.80;99.90;;;;;;5096658;28;20163;-71
2022/09/01 07:22:47;;;;;;;11.60;6.97;;;17.80;99.90;;;;;;5095260;28;20262;-71
2022/09/01 07:25:14;;;;;;;13.83;6.60;;;17.90;99.90;;;;;;5096694;28;20445;-72
2022/09/01 07:27:49;;;;;;;10.80;6.53;;;18.10;99.90;;;;;;5096411;28;20577;-72
2022/09/01 07:30:21;;;;;;;6.30;5.70;;;18.20;99.90;;;;;;5096474;28;20167;-72
2022/09/01 07:32:47;;;;;;;4.93;4.10;;;18.30;99.90;;;;;;5096364;28;20519;-74
2022/09/01 07:35:17;;;;;;;7.53;4.47;;;18.30;99.90;;;;;;5096401;28;20220;-72
2022/09/01 07:37:43;;;;;;;8.33;3.90;;;18.40;99.90;;;;;;5096384;28;20554;-72
2022/09/01 07:40:18;;;;;;;6.10;4.77;;;18.40;99.90;;;;;;5096491;28;20235;-72
2022/09/01 07:42:46;;;;;;;6.47;4.73;;;18.50;99.90;;;;;;5095223;28;20590;-72
2022/09/01 07:45:16;;;;;;;6.17;5.67;;;18.30;99.90;;;;;;5096156;28;20171;-73
2022/09/01 07:47:43;;;;;;;7.40;5.67;;;18.30;99.90;;;;;;5096142;28;20245;-72
2022/09/01 07:50:13;;;;;;;7.50;6.70;;;18.20;99.90;;;;;;5094972;28;20573;-75
2022/09/01 07:52:41;;;;;;;12.53;5.33;;;18.10;99.90;;;;;;5095919;28;20202;-72
2022/09/01 07:55:10;;;;;;;9.03;4.67;;;17.80;99.90;;;;;;5096035;28;20216;-72
2022/09/01 07:57:36;;;;;;;9.03;5.60;;;17.10;99.90;;;;;;5095947;28;20574;-72
2022/09/01 08:00:05;;;;;;;9.93;5.63;;;15.80;99.90;;;;;;5095139;28;20179;-77
2022/09/01 08:02:31;;;;;;;5.57;4.80;;;14.20;99.90;;;;;;5095906;28;20174;-75
2022/09/01 08:04:57;;;;;;;6.13;4.27;;;13.10;99.90;;;;;;5095826;28;20514;-74
2022/09/01 08:07:23;;;;;;;6.37;3.00;;;19.70;99.90;;;;;;5095694;28;20220;-74
2022/09/01 08:09:50;;;;;;;4.10;3.67;;;19.80;99.90;;;;;;5095993;28;20605;-76
2022/09/01 08:12:16;;;;;;;5.67;3.67;;;19.80;99.90;;;;;;5095596;28;20702;-76
2022/09/01 08:14:41;;;;;;;3.83;3.53;;;19.90;99.90;;;;;;5095970;28;20627;-75
2022/09/01 08:17:08;;;;;;;4.90;3.80;;;20.00;99.90;;;;;;5095922;28;20163;-76
2022/09/01 08:19:35;;;;;;;4.13;3.37;;;20.00;99.90;;;;;;5095735;28;20167;-72
2022/09/01 08:22:01;;;;;;;5.07;3.60;;;20.00;99.90;;;;;;5095629;28;20178;-71
2022/09/01 08:24:27;;;;;;;3.57;3.00;;;20.10;99.90;;;;;;5095653;28;20473;-72
2022/09/01 08:26:53;;;;;;;6.53;3.30;;;20.20;99.90;;;;;;5094671;28;20175;-70
2022/09/01 08:29:18;;;;;;;7.70;3.07;;;20.20;99.90;;;;;;5095908;28;20189;-77
2022/09/01 08:31:46;;;;;;;4.13;3.17;;;20.30;99.90;;;;;;5095598;28;20666;-72
2022/09/01 08:34:12;;;;;;;6.00;3.37;;;20.40;99.90;;;;;;5095502;28;20170;-76
2022/09/01 08:36:38;;;;;;;4.13;3.43;;;20.40;99.90;;;;;;5095397;28;20178;-70
2022/09/01 08:39:04;;;;;;;4.93;3.20;;;20.50;99.90;;;;;;5095627;28;20246;-72
2022/09/01 08:42:04;;;;;;;3.20;2.90;;;20.60;99.90;;;;;;5095670;28;20195;-77
2022/09/01 08:44:56;;;;;;;3.10;2.90;;;20.60;99.90;;;;;;5092183;28;20191;-71
2022/09/01 08:47:21;;;;;;;4.17;3.43;;;20.70;99.90;;;;;;5084132;28;20182;-71
2022/09/01 08:49:48;;;;;;;4.00;2.47;;;20.70;99.90;;;;;;5095118;28;20191;-72
2022/09/01 08:52:33;;;;;;;4.23;2.53;;;20.70;99.90;;;;;;5094414;28;20671;-76
2022/09/01 08:55:24;;;;;;;5.30;2.63;;;20.80;99.90;;;;;;5095454;28;20167;-74
2022/09/01 08:57:54;;;;;;;3.07;2.87;;;20.90;99.90;;;;;;5095370;28;20174;-72
2022/09/01 09:00:26;;;;;;;5.63;3.23;;;21.00;99.90;;;;;;5095300;28;20190;-71
2022/09/01 09:03:19;;;;;;;3.80;3.10;;;21.20;99.90;;;;;;5095604;28;20278;-71
2022/09/01 09:06:15;;;;;;;2.17;1.97;;;21.30;99.90;;;;;;5094375;28;20485;-72
2022/09/01 09:09:04;;;;;;;3.80;2.47;;;21.30;99.90;;;;;;5095152;28;20175;-71
2022/09/01 09:12:14;;;;;;;2.63;2.43;;;21.20;99.90;;;;;;5098253;28;20186;-71
2022/09/01 09:14:47;;;;;;;3.20;2.60;;;21.60;99.90;;;;;;5097871;28;20253;-73
2022/09/01 09:17:16;;;;;;;3.03;2.83;;;21.70;99.90;;;;;;5099059;28;20578;-70
2022/09/01 09:19:44;;;;;;;3.93;2.03;;;21.90;99.90;;;;;;5098690;28;20590;-70
2022/09/01 09:22:14;;;;;;;4.27;3.97;;;21.90;99.90;;;;;;5099158;28;20577;-70
2022/09/01 09:24:54;;;;;;;4.77;2.87;;;21.80;99.90;;;;;;5098752;28;20178;-73
2022/09/01 09:27:26;;;;;;;8.87;6.40;;;20.90;99.90;;;;;;5099046;28;20265;-71
2022/09/01 09:29:54;;;;;;;5.23;3.27;;;22.30;99.90;;;;;;5098635;28;20182;-74
2022/09/01 09:32:22;;;;;;;3.00;2.70;;;22.30;99.90;;;;;;5098527;28;20548;-70
2022/09/01 09:34:48;;;;;;;5.57;2.83;;;22.40;99.90;;;;;;5098477;28;20564;-70
2022/09/01 09:37:27;;;;;;;3.20;2.30;;;22.30;99.90;;;;;;5098675;28;20159;-75
2022/09/01 09:40:10;;;;;;;2.83;2.63;;;22.40;99.90;;;;;;5098604;28;20483;-73
2022/09/01 09:42:55;;;;;;;2.90;1.97;;;22.40;99.90;;;;;;5098558;28;20170;-72
2022/09/01 09:45:37;;;;;;;3.10;2.90;;;22.40;99.90;;;;;;5098444;28;20519;-71
2022/09/01 09:48:09;;;;;;;2.57;2.40;;;22.00;99.90;;;;;;5098191;28;20254;-73
2022/09/01 09:50:38;;;;;;;3.83;2.47;;;20.10;99.90;;;;;;5098052;28;20472;-70
2022/09/01 09:53:28;;;;;;;2.20;2.00;;;-40.00;75.00;;;;;;5098362;28;20252;-71
2022/09/01 09:56:21;;;;;;;3.83;2.40;;;-40.00;72.20;;;;;;5098117;28;20172;-74
2022/09/01 09:58:49;;;;;;;4.17;2.43;;;-40.00;71.60;;;;;;5098308;28;20647;-72
2022/09/01 10:01:21;;;;;;;4.13;1.73;;;-40.00;70.10;;;;;;5096950;28;20190;-72
2022/09/01 10:03:50;;;;;;;1.83;1.73;;;-40.00;69.70;;;;;;5096875;28;20163;-74
2022/09/01 10:06:35;;;;;;;2.70;1.70;;;-40.00;67.50;;;;;;5097984;28;20496;-76
2022/09/01 10:09:13;;;;;;;4.40;1.20;;;-40.00;65.80;;;;;;5098135;28;20162;-73
2022/09/01 10:11:47;;;;;;;1.83;1.60;;;13.40;94.40;;;;;;5097811;28;20205;-72
2022/09/01 10:14:18;;;;;;;2.13;1.43;;;23.60;95.80;;;;;;5097896;28;20163;-73
2022/09/01 10:16:46;;;;;;;2.87;1.83;;;23.70;95.40;;;;;;5097592;28;20195;-72
2022/09/01 10:19:14;;;;;;;3.33;1.70;;;23.70;93.90;;;;;;5097874;28;20163;-71
2022/09/01 10:21:43;;;;;;;2.17;1.63;;;23.70;94.10;;;;;;5097131;28;20170;-73
2022/09/01 10:24:19;;;;;;;2.37;1.40;;;23.40;93.20;;;;;;5097841;28;20524;-74
2022/09/01 10:26:48;;;;;;;2.57;1.27;;;22.60;92.80;;;;;;5097533;28;20174;-76
2022/09/01 10:29:26;;;;;;;1.90;1.80;;;24.20;93.00;;;;;;5097546;28;20474;-71
2022/09/01 10:31:54;;;;;;;8.40;2.93;;;24.30;92.50;;;;;;5095849;28;20514;-75
2022/09/01 10:34:21;;;;;;;9.03;1.63;;;24.30;92.60;;;;;;5097336;28;20265;-70
2022/09/01 10:36:48;;;;;;;1.90;1.80;;;24.20;92.30;;;;;;5097222;28;20159;-73
2022/09/01 10:39:17;;;;;;;1.73;1.63;;;24.20;93.00;;;;;;5096331;28;20171;-75
2022/09/01 10:41:50;;;;;;;3.53;1.23;;;24.20;93.20;;;;;;5097193;28;20170;-78
2022/09/01 10:45:00;;;;;;;2.00;1.70;;;24.30;92.30;;;;;;5096059;28;20175;-72
2022/09/01 10:47:36;;;;;;;1.93;1.73;;;24.20;92.30;;;;;;5086286;28;20213;-76
2022/09/01 10:50:31;;;;;;;4.20;1.93;;;22.70;91.70;;;;;;5095974;28;20190;-78
2022/09/01 10:53:05;;;;;;;1.40;1.37;;;24.90;91.80;;;;;;5096849;28;20278;-74
2022/09/01 10:55:44;;;;;;;2.67;1.90;;;24.90;91.80;;;;;;5096999;28;20178;-71
2022/09/01 10:58:21;;;;;;;13.83;2.07;;;24.80;91.90;;;;;;5096750;28;20178;-71
2022/09/01 11:00:49;;;;;;;3.10;1.40;;;24.30;91.80;;;;;;5096621;28;20650;-74
2022/09/01 11:03:17;;;;;;;1.60;1.50;;;25.50;89.20;;;;;;5096760;28;20163;-73
2022/09/01 11:05:52;;;;;;;2.80;1.53;;;25.60;90.50;;;;;;5096787;28;20581;-71
2022/09/01 11:08:38;;;;;;;3.77;1.40;;;25.60;90.70;;;;;;5095596;28;20227;-70
2022/09/01 11:11:23;;;;;;;2.93;1.70;;;25.30;89.20;;;;;;5096738;28;20167;-73
2022/09/01 11:13:53;;;;;;;2.67;1.97;;;-40.00;51.40;;;;;;5096427;28;20163;-71
2022/09/01 11:16:42;;;;;;;5.63;1.90;;;-40.00;49.70;;;;;;5095231;28;20167;-70
2022/09/01 11:19:59;;;;;;;2.23;1.80;;;-40.00;48.70;;;;;;5096611;28;20194;-70
2022/09/01 11:22:33;;;;;;;12.00;3.53;;;-40.00;49.30;;;;;;5091818;28;20187;-70
2022/09/01 11:25:26;;;;;;;10.67;1.80;;;-40.00;46.20;;;;;;5096510;28;20189;-72
2022/09/01 11:27:52;;;;;;;1.83;1.30;;;-40.00;48.20;;;;;;5096188;28;20170;-72
2022/09/01 11:30:34;;;;;;;1.60;1.50;;;26.80;85.10;;;;;;5096171;28;20463;-76
2022/09/01 11:33:38;;;;;;;1.60;1.50;;;27.00;82.70;;;;;;5095780;28;20206;-70
2022/09/01 11:36:11;;;;;;;2.30;1.70;;;27.20;82.10;;;;;;5095107;28;20181;-71
2022/09/01 11:38:50;;;;;;;4.07;1.83;;;27.30;83.20;;;;;;5096076;28;20162;-70
2022/09/01 11:41:31;;;;;;;2.97;1.53;;;27.60;82.50;;;;;;5096444;28;20162;-75
2022/09/01 11:43:59;;;;;;;1.87;1.30;;;27.20;81.10;;;;;;5095843;28;20170;-72
2022/09/01 11:46:35;;;;;;;1.77;1.57;;;-40.00;41.10;;;;;;5096230;28;20299;-72
2022/09/01 11:49:33;;;;;;;3.43;1.00;;;-40.00;39.20;;;;;;5095823;28;20159;-75
2022/09/01 11:52:01;;;;;;;5.47;1.60;;;-40.00;40.10;;;;;;5096079;28;20562;-72
2022/09/01 11:54:42;;;;;;;2.83;1.57;;;-40.00;40.10;;;;;;5096014;28;20223;-71
2022/09/01 11:57:39;;;;;;;2.05;1.90;;;-40.00;35.90;;;;;;5095950;28;20201;-72
2022/09/01 12:00:13;;;;;;;2.53;1.60;;;-40.00;36.40;;;;;;5090990;28;20345;-70
2022/09/01 12:02:49;;;;;;;1.75;1.48;;;-40.00;34.80;;;;;;5095922;28;20170;-70
2022/09/01 12:05:33;;;;;;;1.70;1.60;;;-40.00;32.70;;;;;;5095660;28;20167;-70
2022/09/01 12:08:04;;;;;;;1.42;1.42;;;30.90;69.20;;;;;;5095958;28;20166;-72
2022/09/01 12:10:34;;;;;;;2.72;1.30;;;30.70;66.90;;;;;;5095836;28;20159;-72
2022/09/01 12:13:17;;;;;;;1.40;1.30;;;30.90;67.60;;;;;;5095558;28;20252;-70
2022/09/01 12:15:43;;;;;;;3.28;1.30;;;28.80;66.90;;;;;;5095612;28;20182;-73
2022/09/01 12:18:19;;;;;;;5.43;1.23;;;31.40;67.10;;;;;;5095797;28;20640;-74
2022/09/01 12:20:47;;;;;;;1.75;1.65;;;31.70;66.80;;;;;;5095383;28;20198;-74
2022/09/01 12:23:44;;;;;;;3.42;2.17;;;31.60;66.50;;;;;;5095700;28;20446;-70
2022/09/01 12:26:26;;;;;;;2.15;1.95;;;31.60;66.90;;;;;;5093844;28;20182;-69
2022/09/01 12:28:53;;;;;;;1.90;1.77;;;31.60;64.90;;;;;;5095297;28;20197;-72
2022/09/01 12:31:22;;;;;;;1.35;1.30;;;31.50;65.10;;;;;;5095760;28;20250;-70
2022/09/01 12:33:49;;;;;;;1.50;1.50;;;31.90;66.00;;;;;;5094601;28;20582;-71
2022/09/01 12:36:30;;;;;;;1.92;1.83;;;32.20;66.00;;;;;;5095677;28;20163;-72
2022/09/01 12:39:16;;;;;;;2.10;1.95;;;32.30;64.10;;;;;;5094517;28;20201;-70
2022/09/01 12:41:44;;;;;;;2.03;1.55;;;31.90;62.00;;;;;;5094372;28;20656;-71
2022/09/01 12:44:25;;;;;;;2.00;1.50;;;30.30;62.00;;;;;;5095511;28;20174;-73
2022/09/01 12:46:52;;;;;;;1.85;1.75;;;32.90;62.80;;;;;;5098392;28;20761;-72
2022/09/01 12:49:24;;;;;;;2.13;1.90;;;33.00;61.10;;;;;;5099305;28;20198;-72
2022/09/01 12:52:05;;;;;;;1.83;1.38;;;-0.40;42.30;;;;;;5099530;28;20221;-71
2022/09/01 12:54:31;;;;;;;1.83;1.73;;;1.10;43.40;;;;;;5099281;28;20202;-72
2022/09/01 12:56:57;;;;;;;1.90;1.75;;;32.40;62.00;;;;;;5099232;28;20199;-72
2022/09/01 12:59:25;;;;;;;1.52;1.52;;;32.80;62.10;;;;;;5099518;28;20202;-72
2022/09/01 13:01:51;;;;;;;2.83;2.20;;;32.80;60.90;;;;;;5099235;28;20174;-72
2022/09/01 13:04:20;;;;;;;3.10;1.50;;;32.90;59.40;;;;;;5099358;28;20245;-71
2022/09/01 13:06:46;;;;;;;1.33;1.33;;;32.90;61.00;;;;;;5099215;28;20475;-73
2022/09/01 13:09:12;;;;;;;1.98;1.88;;;32.60;58.90;;;;;;5099311;28;20512;-72
2022/09/01 13:11:38;;;;;;;5.22;3.13;;;32.60;59.10;;;;;;5098696;28;20236;-74